createdAt,value
2017-08-28T00:02:11.186Z,15.10
2017-08-28T00:04:40.385Z,15.10
2017-08-28T00:07:09.320Z,15.10
2017-08-28T00:09:37.743Z,15.10
2017-08-28T00:12:06.105Z,15.10
2017-08-28T00:14:34.495Z,15.10
2017-08-28T00:17:02.878Z,15.00
2017-08-28T00:19:31.679Z,15.00
2017-08-28T00:22:00.100Z,14.90
2017-08-28T00:24:28.467Z,14.90
2017-08-28T00:26:56.821Z,14.80
2017-08-28T00:29:25.226Z,14.70
2017-08-28T00:31:53.593Z,14.70
2017-08-28T00:34:21.949Z,14.70
2017-08-28T00:36:50.554Z,14.70
2017-08-28T00:39:18.969Z,14.70
2017-08-28T00:41:47.333Z,14.70
2017-08-28T00:44:15.861Z,14.70
2017-08-28T00:46:44.329Z,14.70
2017-08-28T00:49:12.879Z,14.60
2017-08-28T00:51:41.659Z,14.60
2017-08-28T00:54:10.094Z,14.60
2017-08-28T00:56:38.480Z,14.60
2017-08-28T00:59:07.028Z,14.60
2017-08-28T01:01:35.560Z,14.60
2017-08-28T01:04:03.994Z,14.60
2017-08-28T01:06:32.718Z,14.60
2017-08-28T01:09:01.845Z,14.60
2017-08-28T01:11:31.121Z,14.50
2017-08-28T01:14:00.344Z,14.60
2017-08-28T01:16:29.373Z,14.60
2017-08-28T01:18:57.789Z,14.40
2017-08-28T01:21:26.609Z,14.40
2017-08-28T01:23:54.986Z,14.40
2017-08-28T01:26:23.381Z,14.40
2017-08-28T01:28:52.626Z,14.40
2017-08-28T01:31:20.978Z,14.30
2017-08-28T01:33:49.385Z,14.30
2017-08-28T01:36:17.906Z,14.20
2017-08-28T01:38:46.330Z,14.20
2017-08-28T01:41:14.699Z,14.20
2017-08-28T01:43:43.320Z,14.10
2017-08-28T01:46:11.704Z,14.10
2017-08-28T01:48:40.101Z,14.10
2017-08-28T01:51:08.661Z,14.00
2017-08-28T01:53:37.047Z,14.00
2017-08-28T01:56:05.439Z,13.90
2017-08-28T01:58:33.983Z,13.90
2017-08-28T02:01:02.376Z,13.90
2017-08-28T02:03:31.589Z,13.90
2017-08-28T02:06:00.016Z,13.90
2017-08-28T02:08:28.366Z,13.80
2017-08-28T02:10:56.756Z,13.90
2017-08-28T02:13:25.181Z,13.80
2017-08-28T02:15:53.594Z,13.80
2017-08-28T02:18:21.971Z,13.80
2017-08-28T02:20:50.447Z,13.70
2017-08-28T02:23:18.917Z,13.70
2017-08-28T02:25:48.047Z,13.70
2017-08-28T02:28:16.625Z,13.70
2017-08-28T02:30:44.995Z,13.70
2017-08-28T02:33:13.357Z,13.70
2017-08-28T02:35:41.786Z,13.70
2017-08-28T02:38:10.140Z,13.60
2017-08-28T02:40:38.559Z,13.60
2017-08-28T02:43:06.981Z,13.60
2017-08-28T02:45:35.335Z,13.60
2017-08-28T02:48:03.718Z,13.60
2017-08-28T02:50:32.472Z,13.60
2017-08-28T02:53:00.848Z,13.60
2017-08-28T02:55:29.204Z,13.50
2017-08-28T02:57:57.667Z,13.50
2017-08-28T03:00:26.043Z,13.50
2017-08-28T03:02:54.395Z,13.50
2017-08-28T03:05:22.872Z,13.50
2017-08-28T03:07:51.229Z,13.60
2017-08-28T03:10:19.605Z,13.50
2017-08-28T03:12:48.013Z,13.50
2017-08-28T03:15:17.132Z,13.30
2017-08-28T03:17:45.513Z,13.30
2017-08-28T03:20:14.000Z,13.20
2017-08-28T03:22:42.368Z,13.20
2017-08-28T03:25:11.107Z,13.20
2017-08-28T03:27:39.635Z,13.20
2017-08-28T03:30:08.019Z,13.20
2017-08-28T03:32:36.415Z,13.20
2017-08-28T03:35:05.208Z,13.10
2017-08-28T03:37:33.598Z,13.20
2017-08-28T03:40:01.983Z,13.10
2017-08-28T03:42:30.884Z,13.10
2017-08-28T03:44:59.322Z,13.10
2017-08-28T03:47:27.732Z,13.00
2017-08-28T03:49:56.295Z,13.00
2017-08-28T03:52:25.184Z,13.00
2017-08-28T03:54:53.595Z,13.00
2017-08-28T03:57:22.282Z,13.00
2017-08-28T03:59:50.668Z,13.00
2017-08-28T04:02:19.137Z,13.00
2017-08-28T04:04:47.536Z,13.00
2017-08-28T04:07:16.146Z,13.00
2017-08-28T04:09:44.565Z,12.90
2017-08-28T04:12:13.011Z,12.90
2017-08-28T04:14:41.380Z,12.90
2017-08-28T04:17:16.915Z,12.80
2017-08-28T04:19:45.333Z,12.80
2017-08-28T04:22:13.744Z,12.80
2017-08-28T04:24:42.936Z,12.80
2017-08-28T04:27:11.594Z,12.80
2017-08-28T04:29:39.957Z,12.80
2017-08-28T04:32:08.802Z,12.80
2017-08-28T04:34:37.263Z,12.70
2017-08-28T04:37:05.642Z,12.70
2017-08-28T04:39:34.180Z,12.70
2017-08-28T04:42:02.561Z,12.70
2017-08-28T04:44:31.261Z,12.70
2017-08-28T04:46:59.821Z,12.70
2017-08-28T04:49:28.193Z,12.70
2017-08-28T04:51:57.394Z,12.70
2017-08-28T04:54:26.971Z,12.70
2017-08-28T04:56:55.366Z,12.70
2017-08-28T04:59:23.768Z,12.70
2017-08-28T05:01:52.303Z,12.60
2017-08-28T05:04:21.420Z,12.60
2017-08-28T05:06:49.821Z,12.60
2017-08-28T05:09:18.287Z,12.60
2017-08-28T05:11:47.460Z,12.60
2017-08-28T05:14:15.866Z,12.60
2017-08-28T05:16:45.166Z,12.80
2017-08-28T05:19:13.650Z,12.80
2017-08-28T05:21:42.044Z,13.10
2017-08-28T05:24:10.452Z,13.20
2017-08-28T05:26:40.490Z,13.40
2017-08-28T05:29:10.847Z,13.40
2017-08-28T05:31:40.065Z,13.60
2017-08-28T05:34:09.544Z,13.60
2017-08-28T05:36:38.740Z,13.70
2017-08-28T05:39:07.156Z,13.60
2017-08-28T05:41:36.400Z,13.70
2017-08-28T05:44:06.837Z,13.60
2017-08-28T05:46:36.388Z,13.60
2017-08-28T05:49:04.853Z,13.70
2017-08-28T05:51:33.931Z,13.70
2017-08-28T05:54:03.244Z,13.80
2017-08-28T05:59:05.413Z,13.80
2017-08-28T06:01:34.637Z,14.00
2017-08-28T06:04:03.026Z,14.10
2017-08-28T06:06:31.423Z,14.10
2017-08-28T06:09:00.265Z,14.20
2017-08-28T06:11:28.742Z,14.30
2017-08-28T06:13:58.887Z,14.50
2017-08-28T06:16:28.189Z,14.40
2017-08-28T06:18:56.553Z,14.60
2017-08-28T06:21:25.116Z,14.80
2017-08-28T06:24:04.666Z,14.80
2017-08-28T06:26:33.083Z,14.80
2017-08-28T06:29:01.451Z,15.00
2017-08-28T06:31:30.233Z,15.00
2017-08-28T06:33:58.672Z,15.10
2017-08-28T06:36:27.184Z,15.20
2017-08-28T06:38:55.553Z,15.50
2017-08-28T06:41:24.995Z,16.30
2017-08-28T06:43:53.376Z,16.30
2017-08-28T06:46:21.754Z,16.90
2017-08-28T06:48:50.290Z,17.30
2017-08-28T06:51:18.688Z,17.70
2017-08-28T06:53:47.073Z,17.80
2017-08-28T06:56:15.506Z,17.90
2017-08-28T06:58:45.136Z,18.30
2017-08-28T07:01:14.416Z,18.50
2017-08-28T07:03:42.814Z,18.50
2017-08-28T07:06:11.217Z,18.20
2017-08-28T07:08:40.238Z,18.50
2017-08-28T07:11:10.158Z,18.70
2017-08-28T07:13:39.175Z,18.40
2017-08-28T07:16:07.603Z,17.90
2017-08-28T07:18:36.782Z,17.70
2017-08-28T07:21:05.203Z,17.70
2017-08-28T07:23:36.553Z,17.60
2017-08-28T07:26:05.393Z,18.00
2017-08-28T07:28:35.320Z,19.00
2017-08-28T07:31:03.706Z,19.00
2017-08-28T07:33:32.551Z,18.80
2017-08-28T07:36:01.840Z,18.90
2017-08-28T07:38:30.270Z,18.90
2017-08-28T07:40:59.133Z,18.70
2017-08-28T07:43:28.281Z,18.70
2017-08-28T07:45:56.709Z,18.70
2017-08-28T07:48:25.214Z,18.90
2017-08-28T07:50:53.652Z,19.00
2017-08-28T07:53:22.036Z,19.00
2017-08-28T07:55:51.242Z,19.10
2017-08-28T07:58:20.848Z,19.10
2017-08-28T08:00:49.789Z,19.20
2017-08-28T08:03:18.512Z,19.40
2017-08-28T08:05:49.317Z,19.60
2017-08-28T08:08:17.754Z,19.60
2017-08-28T08:10:48.122Z,20.10
2017-08-28T08:13:18.756Z,20.10
2017-08-28T08:15:47.283Z,20.30
2017-08-28T08:18:16.703Z,20.70
2017-08-28T08:20:45.934Z,21.40
2017-08-28T08:23:14.387Z,21.60
2017-08-28T08:25:43.051Z,21.70
2017-08-28T08:28:12.328Z,21.50
2017-08-28T08:30:42.052Z,21.90
2017-08-28T08:33:10.615Z,22.20
2017-08-28T08:35:39.517Z,22.80
2017-08-28T08:38:10.743Z,22.00
2017-08-28T08:40:43.561Z,22.00
2017-08-28T08:43:12.210Z,21.50
2017-08-28T08:45:41.555Z,22.50
2017-08-28T08:48:10.795Z,23.10
2017-08-28T08:50:39.587Z,23.20
2017-08-28T08:53:08.069Z,23.40
2017-08-28T08:55:36.549Z,23.60
2017-08-28T08:58:05.718Z,23.30
2017-08-28T09:00:35.261Z,23.50
2017-08-28T09:03:04.666Z,23.60
2017-08-28T09:05:33.635Z,24.10
2017-08-28T09:08:10.162Z,24.50
2017-08-28T09:10:40.883Z,24.30
2017-08-28T09:13:09.647Z,24.70
2017-08-28T09:15:38.023Z,24.00
2017-08-28T09:18:06.422Z,23.90
2017-08-28T09:20:36.746Z,24.30
2017-08-28T09:23:05.960Z,23.90
2017-08-28T09:25:35.150Z,24.30
2017-08-28T09:28:06.984Z,24.50
2017-08-28T09:30:36.227Z,25.20
2017-08-28T09:33:04.668Z,25.50
2017-08-28T09:35:33.458Z,26.10
2017-08-28T09:38:02.672Z,25.50
2017-08-28T09:40:32.058Z,24.80
2017-08-28T09:43:01.490Z,25.40
2017-08-28T09:45:34.292Z,25.50
2017-08-28T09:48:03.859Z,25.70
2017-08-28T09:50:37.953Z,26.20
2017-08-28T09:53:14.586Z,25.30
2017-08-28T09:55:43.017Z,25.30
2017-08-28T09:58:11.504Z,26.00
2017-08-28T10:00:43.243Z,25.10
2017-08-28T10:03:11.631Z,25.10
2017-08-28T10:05:40.837Z,25.30
2017-08-28T10:08:10.710Z,25.70
2017-08-28T10:10:39.171Z,26.40
2017-08-28T10:13:08.535Z,25.90
2017-08-28T10:15:37.113Z,26.50
2017-08-28T10:18:05.659Z,27.40
2017-08-28T10:20:34.070Z,27.70
2017-08-28T10:23:02.510Z,27.80
2017-08-28T10:25:33.984Z,27.70
2017-08-28T10:28:03.502Z,27.70
2017-08-28T10:30:35.529Z,27.70
2017-08-28T10:33:04.648Z,28.30
2017-08-28T10:35:35.092Z,28.20
2017-08-28T10:38:04.521Z,27.90
2017-08-28T10:40:34.075Z,27.10
2017-08-28T10:43:04.323Z,27.50
2017-08-28T10:45:33.700Z,26.70
2017-08-28T10:48:02.318Z,26.60
2017-08-28T10:50:31.597Z,27.60
2017-08-28T10:53:06.545Z,27.80
2017-08-28T10:55:35.716Z,27.80
2017-08-28T10:58:05.478Z,28.10
2017-08-28T11:00:36.603Z,27.70
2017-08-28T11:03:06.401Z,27.60
2017-08-28T11:05:36.514Z,27.60
2017-08-28T11:08:06.193Z,27.70
2017-08-28T11:10:36.763Z,27.10
2017-08-28T11:13:05.920Z,27.10
2017-08-28T11:15:34.962Z,27.40
2017-08-28T11:18:05.553Z,27.30
2017-08-28T11:20:35.180Z,27.60
2017-08-28T11:23:05.287Z,27.30
2017-08-28T11:25:35.989Z,27.10
2017-08-28T11:28:08.136Z,27.10
2017-08-28T11:30:38.956Z,27.30
2017-08-28T11:33:08.501Z,27.00
2017-08-28T11:35:38.267Z,27.30
2017-08-28T11:38:07.183Z,26.90
2017-08-28T11:40:37.683Z,27.60
2017-08-28T11:43:06.616Z,27.90
2017-08-28T11:45:35.919Z,27.30
2017-08-28T11:48:05.554Z,27.30
2017-08-28T11:50:42.511Z,27.90
2017-08-28T11:53:10.954Z,28.10
2017-08-28T11:55:40.179Z,27.80
2017-08-28T11:58:08.796Z,27.90
2017-08-28T12:00:37.242Z,27.70
2017-08-28T12:03:05.894Z,27.80
2017-08-28T12:05:34.762Z,27.70
2017-08-28T12:08:03.166Z,26.90
2017-08-28T12:10:31.609Z,27.50
2017-08-28T12:13:00.839Z,28.70
2017-08-28T12:15:29.835Z,28.70
2017-08-28T12:17:58.259Z,28.40
2017-08-28T12:20:27.795Z,28.70
2017-08-28T12:22:56.180Z,27.80
2017-08-28T12:25:24.755Z,27.00
2017-08-28T12:27:54.076Z,27.60
2017-08-28T12:30:22.488Z,28.00
2017-08-28T12:32:51.035Z,28.80
2017-08-28T12:35:19.754Z,29.00
2017-08-28T12:37:49.013Z,29.40
2017-08-28T12:40:17.920Z,28.70
2017-08-28T12:42:46.583Z,28.40
2017-08-28T12:45:16.714Z,28.40
2017-08-28T12:47:45.143Z,27.80
2017-08-28T12:50:13.757Z,27.60
2017-08-28T12:52:42.385Z,27.80
2017-08-28T12:55:10.756Z,27.20
2017-08-28T12:57:39.295Z,27.20
2017-08-28T13:00:08.249Z,27.40
2017-08-28T13:02:36.642Z,28.90
2017-08-28T13:05:06.089Z,29.20
2017-08-28T13:07:36.229Z,28.90
2017-08-28T13:10:05.849Z,28.40
2017-08-28T13:12:34.331Z,28.20
2017-08-28T13:15:03.183Z,28.00
2017-08-28T13:17:31.673Z,28.00
2017-08-28T13:20:00.152Z,28.60
2017-08-28T13:22:29.480Z,29.00
2017-08-28T13:24:58.646Z,29.50
2017-08-28T13:27:27.120Z,29.70
2017-08-28T13:29:55.584Z,30.00
2017-08-28T13:32:23.989Z,29.40
2017-08-28T13:34:52.745Z,28.70
2017-08-28T13:37:23.158Z,29.10
2017-08-28T13:40:01.375Z,28.90
2017-08-28T13:42:31.284Z,29.00
2017-08-28T13:45:00.479Z,28.70
2017-08-28T13:47:28.966Z,28.90
2017-08-28T13:49:57.902Z,28.70
2017-08-28T13:52:27.287Z,28.60
2017-08-28T13:54:56.639Z,28.20
2017-08-28T13:57:25.020Z,27.70
2017-08-28T13:59:54.347Z,28.10
2017-08-28T14:05:17.958Z,28.40
2017-08-28T14:07:51.918Z,27.90
2017-08-28T14:10:20.994Z,27.70
2017-08-28T14:12:49.727Z,28.60
2017-08-28T14:15:19.710Z,29.00
2017-08-28T14:17:48.302Z,29.00
2017-08-28T14:20:16.695Z,28.00
2017-08-28T14:22:45.695Z,28.10
2017-08-28T14:25:15.394Z,28.00
2017-08-28T14:27:43.885Z,28.00
2017-08-28T14:30:14.026Z,28.10
2017-08-28T14:32:42.605Z,28.10
2017-08-28T14:35:11.573Z,27.60
2017-08-28T14:37:41.516Z,28.00
2017-08-28T14:40:10.679Z,28.00
2017-08-28T14:42:39.763Z,27.20
2017-08-28T14:45:08.218Z,26.90
2017-08-28T14:47:37.633Z,27.50
2017-08-28T14:50:07.003Z,27.80
2017-08-28T14:52:35.982Z,27.50
2017-08-28T14:55:05.611Z,27.20
2017-08-28T14:57:34.050Z,27.60
2017-08-28T15:00:03.171Z,27.80
2017-08-28T15:02:32.428Z,28.20
2017-08-28T15:05:02.512Z,27.70
2017-08-28T15:07:31.902Z,27.60
2017-08-28T15:10:00.411Z,27.20
2017-08-28T15:12:28.788Z,27.20
2017-08-28T15:14:57.161Z,27.30
2017-08-28T15:17:26.008Z,27.50
2017-08-28T15:19:55.175Z,27.10
2017-08-28T15:22:24.582Z,27.50
2017-08-28T15:24:53.191Z,27.40
2017-08-28T15:27:21.613Z,27.50
2017-08-28T15:29:50.157Z,27.00
2017-08-28T15:32:22.189Z,27.10
2017-08-28T15:34:55.991Z,27.10
2017-08-28T15:37:25.419Z,27.10
2017-08-28T15:39:54.067Z,27.10
2017-08-28T15:42:26.767Z,26.90
2017-08-28T15:44:55.297Z,26.90
2017-08-28T15:47:26.940Z,26.90
2017-08-28T15:49:57.247Z,26.70
2017-08-28T15:52:26.953Z,26.80
2017-08-28T15:54:56.285Z,26.80
2017-08-28T15:57:25.651Z,26.80
2017-08-28T15:59:54.075Z,26.70
2017-08-28T16:02:23.371Z,26.70
2017-08-28T16:04:53.889Z,26.50
2017-08-28T16:07:23.068Z,26.50
2017-08-28T16:09:52.542Z,26.50
2017-08-28T16:12:22.447Z,26.60
2017-08-28T16:14:56.029Z,26.50
2017-08-28T16:17:24.988Z,26.50
2017-08-28T16:19:53.667Z,26.40
2017-08-28T16:22:24.072Z,26.20
2017-08-28T16:24:53.974Z,26.00
2017-08-28T16:27:22.465Z,26.00
2017-08-28T16:29:56.378Z,25.70
2017-08-28T16:32:25.825Z,25.50
2017-08-28T16:34:54.797Z,25.50
2017-08-28T16:37:23.203Z,25.30
2017-08-28T16:39:52.032Z,25.30
2017-08-28T16:42:23.674Z,25.20
2017-08-28T16:44:53.904Z,25.20
2017-08-28T16:47:23.541Z,25.30
2017-08-28T16:49:52.399Z,25.30
2017-08-28T16:52:22.881Z,25.30
2017-08-28T16:54:51.604Z,25.30
2017-08-28T16:57:21.118Z,25.20
2017-08-28T16:59:50.533Z,25.20
2017-08-28T17:02:19.477Z,25.10
2017-08-28T17:04:47.868Z,25.10
2017-08-28T17:07:16.394Z,25.00
2017-08-28T17:09:45.809Z,24.90
2017-08-28T17:12:14.667Z,24.90
2017-08-28T17:14:43.943Z,24.90
2017-08-28T17:17:13.435Z,24.90
2017-08-28T17:19:41.836Z,24.80
2017-08-28T17:22:10.275Z,24.70
2017-08-28T17:24:39.387Z,24.70
2017-08-28T17:27:07.944Z,24.60
2017-08-28T17:29:37.393Z,24.60
2017-08-28T17:32:08.630Z,24.50
2017-08-28T17:34:37.106Z,24.40
2017-08-28T17:37:05.810Z,24.30
2017-08-28T17:39:34.372Z,24.10
2017-08-28T17:42:04.862Z,24.00
2017-08-28T17:44:33.323Z,23.90
2017-08-28T17:47:03.504Z,23.60
2017-08-28T17:49:31.894Z,23.40
2017-08-28T17:52:00.437Z,23.30
2017-08-28T17:54:31.177Z,23.10
2017-08-28T17:57:00.553Z,23.10
2017-08-28T17:59:30.241Z,22.90
2017-08-28T18:01:59.860Z,22.90
2017-08-28T18:04:29.763Z,22.60
2017-08-28T18:06:58.897Z,22.60
2017-08-28T18:09:27.352Z,22.50
2017-08-28T18:11:57.255Z,22.50
2017-08-28T18:14:26.038Z,22.30
2017-08-28T18:16:54.639Z,22.10
2017-08-28T18:19:23.974Z,22.00
2017-08-28T18:21:53.446Z,21.90
2017-08-28T18:24:22.018Z,21.90
2017-08-28T18:26:51.255Z,21.60
2017-08-28T18:29:20.680Z,21.60
2017-08-28T18:31:49.982Z,21.30
2017-08-28T18:34:19.749Z,21.20
2017-08-28T18:36:48.211Z,21.20
2017-08-28T18:39:16.935Z,21.30
2017-08-28T18:41:45.407Z,21.30
2017-08-28T18:44:14.017Z,21.20
2017-08-28T18:46:42.977Z,21.00
2017-08-28T18:49:11.687Z,20.90
2017-08-28T18:51:40.211Z,20.70
2017-08-28T18:54:08.958Z,20.50
2017-08-28T18:56:38.087Z,20.40
2017-08-28T18:59:07.389Z,20.40
2017-08-28T19:01:36.231Z,20.40
2017-08-28T19:04:04.999Z,20.30
2017-08-28T19:06:33.391Z,20.30
2017-08-28T19:09:02.252Z,20.20
2017-08-28T19:11:30.740Z,20.10
2017-08-28T19:13:59.418Z,20.00
2017-08-28T19:16:28.519Z,19.90
2017-08-28T19:18:56.970Z,20.00
2017-08-28T19:21:25.391Z,19.90
2017-08-28T19:23:54.194Z,19.90
2017-08-28T19:26:23.434Z,19.80
2017-08-28T19:28:51.845Z,19.80
2017-08-28T19:31:20.549Z,19.70
2017-08-28T19:33:55.557Z,19.60
2017-08-28T19:36:24.042Z,19.70
2017-08-28T19:38:52.539Z,19.50
2017-08-28T19:41:20.946Z,19.50
2017-08-28T19:43:49.522Z,19.40
2017-08-28T19:46:17.933Z,19.40
2017-08-28T19:48:46.338Z,19.30
2017-08-28T19:51:15.115Z,19.20
2017-08-28T19:53:45.967Z,19.10
2017-08-28T19:56:14.467Z,19.00
2017-08-28T19:58:42.984Z,18.90
2017-08-28T20:01:11.489Z,18.90
2017-08-28T20:03:39.913Z,19.00
2017-08-28T20:06:09.087Z,18.90
2017-08-28T20:08:45.569Z,18.90
2017-08-28T20:11:14.716Z,18.80
2017-08-28T20:13:43.261Z,18.70
2017-08-28T20:16:11.654Z,18.60
2017-08-28T20:18:40.487Z,18.50
2017-08-28T20:21:08.904Z,18.50
2017-08-28T20:23:37.331Z,18.50
2017-08-28T20:26:06.248Z,18.60
2017-08-28T20:28:34.654Z,18.60
2017-08-28T20:31:03.158Z,18.40
2017-08-28T20:33:32.820Z,18.30
2017-08-28T20:36:02.206Z,18.50
2017-08-28T20:38:30.661Z,18.40
2017-08-28T20:41:00.088Z,18.40
2017-08-28T20:43:28.496Z,18.40
2017-08-28T20:45:58.584Z,18.30
2017-08-28T20:48:27.147Z,18.20
2017-08-28T20:50:55.987Z,18.10
2017-08-28T20:53:24.507Z,18.00
2017-08-28T20:55:55.310Z,17.90
2017-08-28T20:58:23.722Z,17.70
2017-08-28T21:00:52.898Z,17.70
2017-08-28T21:03:21.761Z,17.70
2017-08-28T21:05:54.001Z,17.60
2017-08-28T21:08:22.412Z,17.70
2017-08-28T21:10:50.845Z,17.60
2017-08-28T21:13:19.221Z,17.60
2017-08-28T21:15:47.938Z,17.50
2017-08-28T21:18:16.352Z,17.50
2017-08-28T21:20:45.243Z,17.60
2017-08-28T21:23:14.034Z,17.50
2017-08-28T21:25:42.430Z,17.40
2017-08-28T21:28:10.863Z,17.30
2017-08-28T21:30:40.472Z,17.40
2017-08-28T21:33:09.665Z,17.30
2017-08-28T21:35:38.260Z,17.30
2017-08-28T21:38:06.692Z,17.30
2017-08-28T21:40:35.278Z,17.30
2017-08-28T21:43:03.644Z,17.20
2017-08-28T21:45:32.253Z,17.20
2017-08-28T21:48:01.157Z,17.10
2017-08-28T21:50:29.828Z,17.00
2017-08-28T21:53:00.192Z,16.90
2017-08-28T21:55:30.110Z,16.90
2017-08-28T21:57:59.314Z,16.80
2017-08-28T22:00:28.156Z,16.70
2017-08-28T22:02:56.610Z,16.80
2017-08-28T22:05:25.150Z,16.70
2017-08-28T22:07:54.344Z,16.80
2017-08-28T22:10:22.725Z,16.80
2017-08-28T22:12:51.900Z,16.50
2017-08-28T22:15:20.608Z,16.50
2017-08-28T22:17:49.787Z,16.70
2017-08-28T22:20:19.053Z,16.70
2017-08-28T22:22:48.164Z,16.70
2017-08-28T22:25:16.734Z,16.60
2017-08-28T22:27:45.857Z,16.50
2017-08-28T22:30:14.337Z,16.50
2017-08-28T22:32:42.758Z,16.50
2017-08-28T22:35:11.127Z,16.50
2017-08-28T22:37:39.703Z,16.50
2017-08-28T22:40:08.374Z,16.50
2017-08-28T22:42:36.910Z,16.40
2017-08-28T22:45:05.441Z,16.50
2017-08-28T22:47:34.584Z,16.30
2017-08-28T22:50:02.976Z,16.30
2017-08-28T22:52:31.708Z,16.20
2017-08-28T22:55:00.859Z,16.10
2017-08-28T22:57:29.411Z,16.10
2017-08-28T22:59:58.156Z,16.10
2017-08-28T23:02:27.613Z,16.00
2017-08-28T23:04:56.963Z,16.00
2017-08-28T23:07:25.730Z,16.00
2017-08-28T23:09:54.140Z,16.10
2017-08-28T23:12:22.515Z,16.00
2017-08-28T23:14:51.026Z,16.00
2017-08-28T23:17:19.427Z,15.90
2017-08-28T23:19:47.821Z,16.00
2017-08-28T23:22:16.253Z,15.90
2017-08-28T23:24:44.912Z,16.00
2017-08-28T23:27:13.272Z,16.00
2017-08-28T23:29:41.828Z,16.00
2017-08-28T23:32:10.230Z,16.00
2017-08-28T23:34:38.598Z,15.90
2017-08-28T23:37:07.024Z,15.90
2017-08-28T23:39:35.491Z,15.80
2017-08-28T23:42:03.897Z,15.80
2017-08-28T23:44:32.483Z,15.80
2017-08-28T23:47:00.846Z,15.80
2017-08-28T23:49:29.237Z,15.70
2017-08-28T23:51:57.629Z,15.70
2017-08-28T23:54:26.089Z,15.70
2017-08-28T23:56:55.983Z,15.60
2017-08-28T23:59:24.768Z,15.60
